Time,TemperatureF,DewpointF,PressureIn,WindDirection,WindDirectionDegrees,WindSpeedMPH,WindSpeedGustMPH,Humidity,HourlyPrecipIn,Conditions,Clouds,dailyrainin,SoftwareType,DateUTC
2013-01-14 00:10:00,43.0,42.5,29.94,WSW,247,4.3,-999.0,98,-99.99,,,0.00,Acu-Link.com,2013-01-14 05:10:00,
2013-01-14 00:25:00,43.0,42.5,29.94,SW,225,3.8,-999.0,98,-99.99,,,0.00,Acu-Link.com,2013-01-14 05:25:00,
2013-01-14 00:40:00,42.8,42.3,29.93,SW,225,3.8,-999.0,98,-99.99,,,0.00,Acu-Link.com,2013-01-14 05:40:00,
2013-01-14 00:55:00,42.8,42.3,29.93,NW,315,3.8,-999.0,98,-99.99,,,0.00,Acu-Link.com,2013-01-14 05:55:00,
2013-01-14 01:11:00,43.0,42.5,29.93,NW,315,1.6,-999.0,98,-99.99,,,0.00,Acu-Link.com,2013-01-14 06:11:00,
2013-01-14 01:26:00,42.8,42.3,29.93,NW,315,3.8,-999.0,98,-99.99,,,0.00,Acu-Link.com,2013-01-14 06:26:00,
2013-01-14 01:41:00,42.4,41.9,29.94,WSW,247,3.8,-999.0,98,-99.99,,,0.00,Acu-Link.com,2013-01-14 06:41:00,
2013-01-14 01:57:00,42.3,41.7,29.95,West,270,2.2,-999.0,98,-99.99,,,0.00,Acu-Link.com,2013-01-14 06:57:00,
2013-01-14 02:12:00,42.3,41.7,29.94,WSW,247,2.7,-999.0,98,-99.99,,,0.00,Acu-Link.com,2013-01-14 07:12:00,
2013-01-14 02:27:00,42.3,41.7,29.94,SE,135,6.3,-999.0,98,-99.99,,,0.00,Acu-Link.com,2013-01-14 07:27:00,
2013-01-14 02:43:00,42.3,41.7,29.95,SSW,202,2.2,-999.0,98,-99.99,,,0.00,Acu-Link.com,2013-01-14 07:43:00,
2013-01-14 02:58:00,42.1,41.6,29.95,SW,225,2.2,-999.0,98,-99.99,,,0.00,Acu-Link.com,2013-01-14 07:58:00,
2013-01-14 03:13:00,42.4,41.9,29.95,South,180,2.7,-999.0,98,-99.99,,,0.00,Acu-Link.com,2013-01-14 08:13:00,
2013-01-14 03:28:00,42.8,42.3,29.95,South,180,10.3,-999.0,98,-99.99,,,0.01,Acu-Link.com,2013-01-14 08:28:00,
2013-01-14 03:44:00,43.3,42.8,29.93,WSW,247,2.7,-999.0,98,-99.99,,,0.05,Acu-Link.com,2013-01-14 08:44:00,
2013-01-14 03:59:00,43.5,43.0,29.93,SSE,157,4.3,-999.0,98,-99.99,,,0.07,Acu-Link.com,2013-01-14 08:59:00,
2013-01-14 04:14:00,43.5,43.0,29.93,SSE,157,3.8,-999.0,98,-99.99,,,0.07,Acu-Link.com,2013-01-14 09:14:00,
2013-01-14 04:29:00,43.3,42.8,29.92,West,270,0.0,-999.0,98,-99.99,,,0.07,Acu-Link.com,2013-01-14 09:29:00,
2013-01-14 04:44:00,42.8,42.3,29.90,East,90,2.7,-999.0,98,-99.99,,,0.08,Acu-Link.com,2013-01-14 09:44:00,
2013-01-14 04:59:00,43.5,43.0,29.83,West,270,1.6,-999.0,98,-99.99,,,0.09,Acu-Link.com,2013-01-14 09:59:00,
2013-01-14 05:15:00,43.7,43.2,29.84,NW,315,2.7,-999.0,98,-99.99,,,0.09,Acu-Link.com,2013-01-14 10:15:00,
2013-01-14 05:30:00,43.2,42.6,29.86,NW,315,3.8,-999.0,98,-99.99,,,0.09,Acu-Link.com,2013-01-14 10:30:00,
2013-01-14 05:45:00,43.2,42.6,29.90,NW,315,2.7,-999.0,98,-99.99,,,0.09,Acu-Link.com,2013-01-14 10:45:00,
2013-01-14 06:00:00,43.0,42.5,29.90,SW,225,3.1,-999.0,98,-99.99,,,0.09,Acu-Link.com,2013-01-14 11:00:00,
2013-01-14 06:16:00,43.2,42.6,29.90,SW,225,3.1,-999.0,98,-99.99,,,0.09,Acu-Link.com,2013-01-14 11:16:00,
2013-01-14 06:31:00,44.1,43.5,29.90,West,270,5.8,-999.0,98,-99.99,,,0.09,Acu-Link.com,2013-01-14 11:31:00,
2013-01-14 06:46:00,44.6,44.1,29.90,West,270,2.2,-999.0,98,-99.99,,,0.09,Acu-Link.com,2013-01-14 11:46:00,
2013-01-14 07:02:00,44.8,44.2,29.90,West,270,1.6,-999.0,98,-99.99,,,0.09,Acu-Link.com,2013-01-14 12:02:00,
2013-01-14 07:17:00,45.1,44.6,29.91,West,270,2.7,-999.0,98,-99.99,,,0.09,Acu-Link.com,2013-01-14 12:17:00,
2013-01-14 09:07:00,45.7,45.1,30.02,SW,225,5.8,-999.0,98,-99.99,,,0.09,Acu-Link.com,2013-01-14 14:07:00,
2013-01-14 09:22:00,45.1,44.6,30.02,ENE,67,5.1,-999.0,98,-99.99,,,0.09,Acu-Link.com,2013-01-14 14:22:00,
2013-01-14 09:37:00,45.7,45.1,30.02,East,90,4.3,-999.0,98,-99.99,,,0.09,Acu-Link.com,2013-01-14 14:37:00,
2013-01-14 09:53:00,45.9,45.3,30.02,East,90,3.8,-999.0,98,-99.99,,,0.09,Acu-Link.com,2013-01-14 14:53:00,
2013-01-14 10:08:00,45.9,45.3,30.02,ESE,112,1.1,-999.0,98,-99.99,,,0.09,Acu-Link.com,2013-01-14 15:08:00,
2013-01-14 10:23:00,46.4,45.9,30.03,ESE,112,1.1,-999.0,98,-99.99,,,0.09,Acu-Link.com,2013-01-14 15:23:00,
2013-01-14 10:39:00,46.6,46.0,30.05,West,270,2.7,-999.0,98,-99.99,,,0.09,Acu-Link.com,2013-01-14 15:39:00,
2013-01-14 10:54:00,47.5,46.9,30.06,West,270,1.6,-999.0,98,-99.99,,,0.09,Acu-Link.com,2013-01-14 15:54:00,
2013-01-14 11:09:00,47.3,46.8,30.06,WNW,292,0.0,-999.0,98,-99.99,,,0.09,Acu-Link.com,2013-01-14 16:09:00,
2013-01-14 11:25:00,49.5,48.9,30.06,WNW,292,1.1,-999.0,98,-99.99,,,0.09,Acu-Link.com,2013-01-14 16:25:00,
2013-01-14 11:40:00,48.4,47.8,30.05,NE,45,4.7,-999.0,98,-99.99,,,0.09,Acu-Link.com,2013-01-14 16:40:00,
2013-01-14 11:55:00,50.2,49.6,30.07,NE,45,4.7,-999.0,98,-99.99,,,0.09,Acu-Link.com,2013-01-14 16:55:00,
2013-01-14 12:10:00,49.8,49.3,30.07,NE,45,2.2,-999.0,98,-99.99,,,0.09,Acu-Link.com,2013-01-14 17:10:00,
2013-01-14 12:26:00,49.6,49.1,30.07,NE,45,2.7,-999.0,98,-99.99,,,0.09,Acu-Link.com,2013-01-14 17:26:00,
2013-01-14 12:41:00,51.3,50.7,30.06,East,90,3.8,-999.0,98,-99.99,,,0.09,Acu-Link.com,2013-01-14 17:41:00,
2013-01-14 12:56:00,52.2,51.6,30.07,ENE,67,7.4,-999.0,98,-99.99,,,0.09,Acu-Link.com,2013-01-14 17:56:00,
2013-01-14 13:12:00,54.1,52.5,30.06,East,90,3.8,-999.0,94,-99.99,,,0.09,Acu-Link.com,2013-01-14 18:12:00,
2013-01-14 13:27:00,53.1,49.9,30.07,ENE,67,5.8,-999.0,89,-99.99,,,0.09,Acu-Link.com,2013-01-14 18:27:00,
2013-01-14 13:42:00,52.7,45.0,30.08,North,0,3.1,-999.0,75,-99.99,,,0.09,Acu-Link.com,2013-01-14 18:42:00,
2013-01-14 13:58:00,52.2,42.3,30.09,ENE,67,5.8,-999.0,69,-99.99,,,0.09,Acu-Link.com,2013-01-14 18:58:00,
2013-01-14 14:13:00,50.9,40.7,30.09,NE,45,2.2,-999.0,68,-99.99,,,0.09,Acu-Link.com,2013-01-14 19:13:00,
2013-01-14 14:28:00,50.2,39.3,30.10,NE,45,2.7,-999.0,66,-99.99,,,0.09,Acu-Link.com,2013-01-14 19:28:00,
2013-01-14 14:43:00,50.2,38.9,30.12,NNW,337,5.8,-999.0,65,-99.99,,,0.09,Acu-Link.com,2013-01-14 19:43:00,
2013-01-14 14:59:00,49.8,38.9,30.12,NE,45,2.7,-999.0,66,-99.99,,,0.09,Acu-Link.com,2013-01-14 19:59:00,
2013-01-14 15:18:00,49.5,38.6,30.12,NE,45,3.8,-999.0,66,-99.99,,,0.09,Acu-Link.com,2013-01-14 20:18:00,
2013-01-14 15:34:00,48.6,37.7,30.12,NE,45,7.4,-999.0,66,-99.99,,,0.09,Acu-Link.com,2013-01-14 20:34:00,
2013-01-14 15:49:00,47.5,40.6,30.12,ESE,112,3.8,-999.0,77,-99.99,,,0.09,Acu-Link.com,2013-01-14 20:49:00,
2013-01-14 16:04:00,46.6,39.8,30.13,NE,45,1.6,-999.0,77,-99.99,,,0.09,Acu-Link.com,2013-01-14 21:04:00,
2013-01-14 16:19:00,45.3,39.5,30.14,NE,45,0.0,-999.0,80,-99.99,,,0.09,Acu-Link.com,2013-01-14 21:19:00,
2013-01-14 16:34:00,43.9,37.8,30.14,NE,45,1.6,-999.0,79,-99.99,,,0.09,Acu-Link.com,2013-01-14 21:34:00,
2013-01-14 16:50:00,42.6,36.9,30.13,NE,45,1.6,-999.0,80,-99.99,,,0.09,Acu-Link.com,2013-01-14 21:50:00,
2013-01-14 17:05:00,42.6,36.9,30.14,ENE,67,3.8,-999.0,80,-99.99,,,0.09,Acu-Link.com,2013-01-14 22:05:00,
2013-01-14 17:20:00,41.4,35.7,30.14,ESE,112,4.3,-999.0,80,-99.99,,,0.09,Acu-Link.com,2013-01-14 22:20:00,
2013-01-14 17:36:00,40.6,35.3,30.16,ESE,112,6.3,-999.0,81,-99.99,,,0.09,Acu-Link.com,2013-01-14 22:36:00,
2013-01-14 17:51:00,40.1,34.7,30.16,NE,45,5.8,-999.0,81,-99.99,,,0.09,Acu-Link.com,2013-01-14 22:51:00,
2013-01-14 18:06:00,39.6,34.2,30.16,NE,45,7.8,-999.0,81,-99.99,,,0.09,Acu-Link.com,2013-01-14 23:06:00,
2013-01-14 18:22:00,39.0,33.1,30.17,NE,45,6.3,-999.0,79,-99.99,,,0.09,Acu-Link.com,2013-01-14 23:22:00,
2013-01-14 20:43:00,35.4,32.2,30.24,East,90,3.8,-999.0,88,-99.99,,,0.09,Acu-Link.com,2013-01-15 01:43:00,
2013-01-14 20:58:00,35.1,32.7,30.23,East,90,0.0,-999.0,91,-99.99,,,0.09,Acu-Link.com,2013-01-15 01:58:00,
2013-01-14 21:13:00,35.6,32.1,30.24,East,90,0.0,-999.0,87,-99.99,,,0.09,Acu-Link.com,2013-01-15 02:13:00,
2013-01-14 21:28:00,35.6,31.8,30.24,East,90,1.1,-999.0,86,-99.99,,,0.09,Acu-Link.com,2013-01-15 02:28:00,
2013-01-14 21:44:00,36.1,30.3,30.24,East,90,3.1,-999.0,79,-99.99,,,0.09,Acu-Link.com,2013-01-15 02:44:00,
2013-01-14 21:59:00,36.1,30.6,30.26,East,90,3.1,-999.0,80,-99.99,,,0.09,Acu-Link.com,2013-01-15 02:59:00,
2013-01-14 22:14:00,35.8,30.8,30.27,East,90,2.7,-999.0,82,-99.99,,,0.09,Acu-Link.com,2013-01-15 03:14:00,
2013-01-14 22:30:00,35.4,31.1,30.27,East,90,2.7,-999.0,84,-99.99,,,0.09,Acu-Link.com,2013-01-15 03:30:00,
2013-01-14 22:45:00,35.1,29.8,30.27,East,90,2.7,-999.0,81,-99.99,,,0.09,Acu-Link.com,2013-01-15 03:45:00,
2013-01-14 23:00:00,34.9,30.0,30.28,East,90,2.2,-999.0,82,-99.99,,,0.09,Acu-Link.com,2013-01-15 04:00:00,
2013-01-14 23:15:00,34.9,30.0,30.27,East,90,3.1,-999.0,82,-99.99,,,0.09,Acu-Link.com,2013-01-15 04:15:00,
2013-01-14 23:31:00,34.5,29.6,30.27,East,90,0.0,-999.0,82,-99.99,,,0.09,Acu-Link.com,2013-01-15 04:31:00,
2013-01-14 23:46:00,34.3,29.4,30.26,East,90,3.1,-999.0,82,-99.99,,,0.09,Acu-Link.com,2013-01-15 04:46:00,